Data for 11/14/2009

Time Sea-Level Adjusted Pressure Absolute Pressure Temperature Relative Humidity Dew Point Precipitation   
(mb) (inHg) (mb) (inHg) (C) (F) (%) (C) (F) (mm) (in)
13:16 1019 30.09 848 25.04 -3.2 26.3 72 -7.5 18.5 -2.243 -0.088
13:17 1019 30.09 848 25.04 -3.1 26.4 72 -7.4 18.7 -2.236 -0.088
13:18 1019 30.09 848 25.04 -3.1 26.4 73 -7.3 18.8 -2.288 -0.09
13:19 1019 30.09 848 25.04 -3.2 26.2 74 -7.3 18.9 -2.368 -0.093
13:20 1019 30.09 848 25.04 -3.4 25.9 74 -7.3 18.8 -2.566 -0.101
13:21 1019 30.09 848 25.04 -3.5 25.6 75 -7.4 18.7 -2.73 -0.107
13:22 1019 30.09 848 25.04 -3.7 25.4 75 -7.5 18.5 -2.877 -0.113
13:23 1019 30.09 848 25.04 -3.8 25.3 75 -7.5 18.5 -3.025 -0.119
13:24 1019 30.09 848 25.04 -3.9 25 76 -7.6 18.3 -3.155 -0.124
13:25 1019 30.09 848 25.04 -3.9 24.9 76 -7.7 18.2 -3.251 -0.128
13:26 1019 30.09 848 25.04 -4 24.9 76 -7.7 18.2 -3.302 -0.13
13:27 1019 30.09 848 25.04 -3.9 25 76 -7.5 18.4 -3.229 -0.127
13:28 1019 30.09 848 25.04 -3.8 25.1 76 -7.5 18.6 -3.149 -0.124
13:29 1019 30.09 848 25.04 -3.8 25.3 76 -7.4 18.6 -3.093 -0.122
13:30 1019 30.09 848 25.04 -3.8 25.2 75 -7.6 18.4 -3.042 -0.12
13:31 1019 30.09 848 25.04 -3.8 25.2 75 -7.7 18.2 -3.059 -0.12
13:32 1019 30.09 848 25.04 -3.8 25.1 74 -7.8 18 -3.093 -0.122
13:33 1019 30.09 848 25.04 -3.9 25.1 74 -7.8 18 -3.149 -0.124
13:34 1019 30.09 848 25.04 -3.9 24.9 75 -7.8 17.9 -3.2 -0.126
13:35 1019 30.09 848 25.04 -4 24.8 75 -7.8 18 -3.268 -0.129
13:36 1019 30.09 848 25.04 -4 24.8 75 -7.8 17.9 -3.319 -0.131
13:37 1019 30.09 848 25.04 -4.1 24.6 75 -7.9 17.8 -3.376 -0.133
13:38 1019 30.09 848 25.04 -4.2 24.5 75 -7.9 17.7 -3.438 -0.135
13:39 1019 30.09 848 25.04 -4.2 24.4 75 -7.9 17.7 -3.534 -0.139
13:40 1019 30.09 848 25.04 -4.3 24.3 75 -8 17.6 -3.574 -0.141
13:41 1019 30.09 848 25.04 -4.3 24.3 76 -7.9 17.7 -3.614 -0.142
13:42 1019 30.09 848 25.04 -4.3 24.2 76 -8 17.6 -3.653 -0.144
13:43 1019 30.09 848 25.04 -4.3 24.2 76 -8 17.5 -3.682 -0.145
13:44 1019 30.09 848 25.04 -4.4 24.1 75 -8.2 17.3 -3.687 -0.145
13:45 1019 30.09 848 25.04 -4.5 24 75 -8.2 17.2 -3.795 -0.149
13:46 1019 30.09 848 25.04 -4.6 23.8 75 -8.3 17.1 -3.874 -0.153
13:47 1019 30.09 848 25.04 -4.7 23.6 76 -8.3 17 -3.965 -0.156
13:48 1019 30.09 848 25.04 -4.7 23.5 76 -8.3 17.1 -4.05 -0.159
13:49 1019 30.09 848 25.04 -4.7 23.5 77 -8.1 17.4 -4.056 -0.16
13:50 1019 30.09 848 25.04 -4.6 23.7 77 -8 17.7 -3.993 -0.157
13:51 1019 30.09 848 25.04 -4.5 24 77 -7.9 17.7 -3.891 -0.153
13:52 1019 30.09 848 25.04 -4.4 24.1 76 -8 17.6 -3.801 -0.15
13:53 1019 30.09 848 25.04 -4.4 24.2 76 -8 17.6 -3.755 -0.148
13:54 1019 30.09 848 25.04 -4.3 24.3 75 -8 17.6 -3.665 -0.144
13:55 1019 30.09 848 25.04 -4.2 24.5 75 -8 17.5 -3.585 -0.141
13:56 1019 30.09 848 25.04 -4.1 24.6 74 -8 17.6 -3.557 -0.14
13:57 1019 30.09 848 25.04 -4.1 24.7 75 -7.9 17.7 -3.489 -0.137
13:58 1019 30.09 848 25.04 -3.9 24.9 74 -7.9 17.8 -3.364 -0.132
13:59 1019 30.09 848 25.04 -3.8 25.2 73 -7.9 17.7 -3.189 -0.126
14:00 1019 30.09 848 25.04 -3.6 25.5 73 -7.8 17.9 -3.042 -0.12
14:01 1019 30.09 848 25.04 -3.4 25.9 72 -7.8 18 -2.855 -0.112
14:02 1019 30.09 848 25.04 -3.1 26.4 70 -7.9 17.8 -2.673 -0.105
14:03 1019 30.09 848 25.04 -3.1 26.3 68 -8.2 17.2 -2.566 -0.101
14:04 1019 30.09 848 25.04 -3.3 26.1 67 -8.5 16.6 -2.487 -0.098
14:05 1019 30.09 848 25.04 -3.6 25.5 69 -8.5 16.8 -2.526 -0.099
14:06 1019 30.09 848 25.04 -3.8 25.1 71 -8.4 16.9 -2.572 -0.101
14:07 1019 30.09 848 25.04 -4 24.9 72 -8.3 17 -2.593 -0.102
14:08 1019 30.09 848 25.04 -4 24.8 73 -8.2 17.2 -2.559 -0.101
14:09 1019 30.09 848 25.04 -4 24.8 73 -8.1 17.4 -2.684 -0.106
14:10 1019 30.09 848 25.04 -4 24.8 74 -8 17.6 -2.813 -0.111
14:11 1019 30.09 848 25.04 -3.9 25 74 -8 17.7 -2.818 -0.111
14:12 1019 30.09 848 25.04 -3.8 25.2 73 -7.9 17.7 -2.728 -0.107
14:13 1019 30.09 848 25.04 -3.6 25.6 72 -7.9 17.8 -2.586 -0.102
14:14 1019 30.09 848 25.04 -3.4 25.9 71 -7.9 17.7 -2.461 -0.097
14:15 1019 30.09 848 25.04 -3.2 26.2 70 -7.9 17.7 -2.393 -0.094
14:16 1019 30.09 848 25.04 -3.3 26.1 70 -7.9 17.7 -2.432 -0.096
14:17 1019 30.09 848 25.04 -3.3 26 71 -7.9 17.7 -2.539 -0.1
14:18 1019 30.09 848 25.04 -3.5 25.7 71 -7.9 17.7 -2.692 -0.106
14:19 1019 30.09 848 25.04 -3.5 25.6 72 -7.9 17.8 -2.783 -0.11
14:20 1019 30.09 848 25.04 -3.6 25.5 72 -7.9 17.9 -2.856 -0.112
14:21 1019 30.09 848 25.04 -3.6 25.6 73 -7.8 17.9 -2.845 -0.112
14:22 1019 30.09 848 25.04 -3.6 25.6 73 -7.8 18 -2.844 -0.112
14:23 1019 30.09 848 25.04 -3.5 25.6 73 -7.8 18 -2.822 -0.111
14:24 1019 30.09 848 25.04 -3.6 25.5 73 -7.8 18 -2.878 -0.113
14:25 1019 30.09 848 25.04 -3.8 25.2 74 -7.8 18 -3.048 -0.12
14:26 1019 30.09 848 25.04 -3.9 25 74 -7.8 18 -3.195 -0.126
14:27 1019 30.09 848 25.04 -4.1 24.7 75 -7.8 17.9 -3.354 -0.132
14:28 1019 30.09 848 25.04 -4.2 24.5 76 -7.8 18 -3.478 -0.137
14:29 1019 30.09 848 25.04 -4.2 24.4 77 -7.8 18 -3.507 -0.138
14:30 1019 30.09 848 25.04 -4.2 24.4 77 -7.7 18.2 -3.552 -0.14
14:31 1019 30.09 848 25.04 -4.1 24.7 77 -7.6 18.3 -3.455 -0.136
14:32 1019 30.09 848 25.04 -4 24.8 76 -7.6 18.3 -3.342 -0.132
14:33 1019 30.09 848 25.04 -3.8 25.1 75 -7.6 18.3 -3.234 -0.127
14:34 1019 30.09 848 25.04 -3.7 25.3 74 -7.6 18.3 -3.121 -0.123
14:35 1019 30.09 848 25.04 -3.6 25.5 74 -7.6 18.4 -2.991 -0.118
14:36 1019 30.09 848 25.04 -3.5 25.7 73 -7.6 18.3 -2.9 -0.114
14:37 1019 30.09 848 25.04 -3.4 25.9 73 -7.6 18.3 -2.815 -0.111
14:38 1019 30.09 848 25.04 -3.4 25.8 72 -7.7 18.1 -2.724 -0.107
14:39 1019 30.09 848 25.04 -3.4 25.9 72 -7.7 18.2 -2.764 -0.109
14:40 1019 30.09 848 25.04 -3.4 25.9 73 -7.7 18.2 -2.787 -0.11
14:41 1019 30.09 848 25.04 -3.4 25.9 73 -7.6 18.4 -2.815 -0.111
14:42 1019 30.09 848 25.04 -3.5 25.7 73 -7.6 18.4 -2.905 -0.114
14:43 1019 30.09 848 25.04 -3.5 25.7 74 -7.6 18.4 -2.945 -0.116
14:44 1019 30.09 848 25.04 -3.5 25.7 73 -7.6 18.4 -2.928 -0.115
14:45 1019 30.09 848 25.04 -3.5 25.7 73 -7.6 18.2 -2.905 -0.114
14:46 1019 30.09 848 25.04 -3.5 25.7 73 -7.7 18.2 -2.911 -0.115
14:47 1019 30.09 848 25.04 -3.6 25.6 73 -7.7 18.2 -2.979 -0.117
14:48 1019 30.09 848 25.04 -3.7 25.4 75 -7.6 18.4 -3.132 -0.123
14:49 1019 30.09 848 25.04 -3.7 25.4 74 -7.6 18.3 -3.183 -0.125
14:50 1019 30.09 848 25.04 -3.8 25.2 75 -7.6 18.4 -3.257 -0.128
14:51 1019 30.09 848 25.04 -3.8 25.2 75 -7.6 18.4 -3.29 -0.13
14:52 1019 30.09 848 25.04 -3.8 25.1 75 -7.6 18.2 -3.262 -0.128
14:53 1019 30.09 848 25.04 -3.8 25.1 75 -7.6 18.3 -3.302 -0.13
14:54 1019 30.09 848 25.04 -3.8 25.1 76 -7.5 18.4 -3.307 -0.13
14:55 1019 30.09 848 25.04 -3.8 25.2 75 -7.6 18.4 -3.273 -0.129
14:56 1019 30.09 848 25.04 -3.7 25.3 75 -7.6 18.4 -3.222 -0.127
14:57 1019 30.09 848 25.04 -3.7 25.4 74 -7.6 18.4 -3.217 -0.127
14:58 1019 30.09 848 25.04 -3.6 25.5 74 -7.6 18.3 -3.2 -0.126
14:59 1019 30.09 849 25.07 -3.6 25.5 73 -7.7 18.2 -3.137 -0.124
15:00 1019 30.09 848 25.04 -3.6 25.5 74 -7.6 18.2 -3.024 -0.119
15:01 1019 30.09 848 25.04 -3.6 25.4 73 -7.8 18 -2.933 -0.115
15:02 1019 30.09 848 25.04 -3.7 25.4 73 -7.8 18 -2.764 -0.109
15:03 1019 30.09 848 25.04 -3.7 25.3 74 -7.8 18 -2.645 -0.104
15:04 1019 30.09 848 25.04 -3.8 25.2 74 -7.8 17.9 -2.605 -0.103
15:05 1019 30.09 848 25.04 -3.9 25 74 -7.8 18 -2.718 -0.107
15:06 1019 30.09 848 25.04 -3.9 25 75 -7.7 18.2 -2.888 -0.114
15:07 1019 30.09 849 25.07 -3.9 25 75 -7.8 18 -2.956 -0.116
15:08 1019 30.09 849 25.07 -3.9 25 74 -7.9 17.8 -3.047 -0.12
15:09 1019 30.09 849 25.07 -3.9 24.9 74 -7.9 17.8 -3.109 -0.122
15:10 1019 30.09 849 25.07 -3.9 25 74 -7.8 18 -3.103 -0.122
15:11 1019 30.09 849 25.07 -3.8 25.2 74 -7.8 18 -3.052 -0.12
15:12 1019 30.09 849 25.07 -3.7 25.4 74 -7.7 18.1 -2.979 -0.117
15:13 1019 30.09 849 25.07 -3.4 25.8 73 -7.6 18.3 -2.86 -0.113
15:14 1019 30.09 849 25.07 -3.2 26.2 72 -7.5 18.5 -2.673 -0.105
15:15 1019 30.09 849 25.07 -3 26.5 71 -7.5 18.5 -2.446 -0.096
15:16 1019 30.09 849 25.07 -2.9 26.8 70 -7.5 18.4 -2.271 -0.089
15:17 1019 30.09 849 25.07 -2.9 26.8 70 -7.7 18.2 -2.174 -0.086
15:18 1019 30.09 849 25.07 -2.9 26.7 69 -7.8 18 -2.259 -0.089
15:19 1019 30.09 849 25.07 -3 26.7 69 -7.9 17.9 -2.299 -0.091
15:20 1019 30.09 849 25.07 -2.9 26.7 69 -7.9 17.8 -2.299 -0.091
15:21 1020 30.12 849 25.07 -2.8 27 67 -8.1 17.3 -2.288 -0.09
15:22 1020 30.12 849 25.07 -2.7 27.2 63 -8.9 16 -2.18 -0.086
15:23 1020 30.12 849 25.07 -2.7 27.1 66 -8.1 17.4 -2.735 -0.108
15:24 1020 30.12 849 25.07 -2.9 26.7 69 -7.9 17.8 -3.018 -0.119
15:25 1020 30.12 849 25.07 -3.2 26.3 70 -7.9 17.8 -3.132 -0.123
15:26 1020 30.12 849 25.07 -3.2 26.2 70 -7.9 17.8 -3.12 -0.123
15:27 1020 30.12 849 25.07 -3.3 26.1 72 -7.7 18.1 -2.894 -0.114
15:28 1020 30.12 849 25.07 -3.2 26.2 71 -7.7 18.1 -2.486 -0.098
15:29 1020 30.12 849 25.07 -3.2 26.2 71 -7.7 18.2 -2.123 -0.084
15:30 1020 30.12 849 25.07 -3.2 26.2 71 -7.7 18.1 -1.817 -0.072
15:31 1020 30.12 849 25.07 -3.1 26.3 71 -7.7 18.2 -1.766 -0.07
15:32 1020 30.12 849 25.07 -3.1 26.4 71 -7.7 18.1 -1.925 -0.076
15:33 1020 30.12 849 25.07 -3.1 26.5 70 -7.7 18.1 -1.987 -0.078
15:34 1020 30.12 849 25.07 -3 26.5 70 -7.7 18.1 -2.067 -0.081
15:35 1020 30.12 849 25.07 -3.1 26.5 70 -7.7 18.1 -2.14 -0.084
15:36 1020 30.12 849 25.07 -3.1 26.4 70 -7.8 17.9 -2.259 -0.089
15:37 1020 30.12 849 25.07 -3.1 26.4 70 -7.9 17.8 -2.429 -0.096
15:38 1020 30.12 849 25.07 -3.3 26.1 70 -8 17.5 -2.69 -0.106
15:39 1020 30.12 849 25.07 -3.6 25.6 70 -8.2 17.2 -3.081 -0.121
15:40 1020 30.12 849 25.07 -4 24.9 72 -8.3 17.1 -3.466 -0.136
15:41 1020 30.12 849 25.07 -4.3 24.3 74 -8.2 17.3 -3.811 -0.15
15:42 1020 30.12 849 25.07 -4.5 23.8 76 -8.2 17.2 -4.066 -0.16
15:43 1020 30.12 849 25.07 -4.7 23.5 77 -8.2 17.3 -4.253 -0.167
15:44 1020 30.12 849 25.07 -4.9 23.2 78 -8.1 17.4 -4.446 -0.175
15:45 1020 30.12 849 25.07 -5 23 79 -8.1 17.4 -4.514 -0.178
15:46 1020 30.12 849 25.07 -5.1 22.9 80 -8 17.5 -4.61 -0.181
15:47 1020 30.12 849 25.07 -5.1 22.8 80 -8 17.6 -4.673 -0.184
15:48 1020 30.12 849 25.07 -5.1 22.8 80 -8 17.6 -4.684 -0.184
15:49 1020 30.12 849 25.07 -5.1 22.7 80 -8 17.6 -4.707 -0.185
15:50 1020 30.12 849 25.07 -5.2 22.7 81 -8 17.7 -4.707 -0.185
15:51 1020 30.12 849 25.07 -5.2 22.6 81 -8 17.7 -4.763 -0.188
15:52 1020 30.12 849 25.07 -5.2 22.6 82 -7.9 17.8 -4.758 -0.187
15:53 1020 30.12 849 25.07 -5.3 22.5 82 -7.9 17.7 -4.803 -0.189
15:54 1020 30.12 849 25.07 -5.3 22.5 82 -7.9 17.9 -4.826 -0.19
15:55 1020 30.12 849 25.07 -5.3 22.5 82 -7.8 17.9 -4.854 -0.191
15:56 1020 30.12 849 25.07 -5.3 22.5 82 -7.9 17.8 -4.877 -0.192
15:57 1020 30.12 849 25.07 -5.3 22.4 83 -7.8 17.9 -4.927 -0.194
15:58 1020 30.12 849 25.07 -5.3 22.4 83 -7.8 17.9 -4.956 -0.195
15:59 1020 30.12 849 25.07 -5.4 22.3 83 -7.9 17.8 -4.984 -0.196
16:00 1020 30.12 849 25.07 -5.4 22.2 83 -7.8 17.9 -5.052 -0.199
16:01 1020 30.12 849 25.07 -5.4 22.2 84 -7.8 18 -5.074 -0.2
16:02 1020 30.12 849 25.07 -5.5 22.2 84 -7.8 18 -5.085 -0.2
16:03 1020 30.12 849 25.07 -5.5 22.1 84 -7.8 17.9 -5.119 -0.202
16:04 1020 30.12 849 25.07 -5.6 22 84 -7.9 17.7 -5.17 -0.204
16:05 1020 30.12 849 25.07 -5.6 21.9 84 -7.9 17.9 -5.214 -0.205
16:06 1020 30.12 849 25.07 -5.7 21.8 85 -7.8 17.9 -5.18 -0.204
16:07 1020 30.12 849 25.07 -5.7 21.7 85 -7.9 17.8 -5.248 -0.207
16:08 1020 30.12 849 25.07 -5.9 21.5 85 -7.9 17.7 -5.372 -0.211
16:09 1020 30.12 849 25.07 -5.9 21.4 86 -7.8 17.9 -5.378 -0.212
16:10 1020 30.12 849 25.07 -5.9 21.4 86 -7.8 17.9 -5.389 -0.212
16:11 1020 30.12 849 25.07 -5.9 21.4 86 -7.8 17.9 -5.4 -0.213
16:12 1020 30.12 849 25.07 -5.9 21.3 86 -7.9 17.8 -5.445 -0.214
16:13 1020 30.12 849 25.07 -6 21.2 86 -8 17.6 -5.575 -0.219
16:14 1020 30.12 849 25.07 -6.2 20.9 87 -8.1 17.5 -5.802 -0.228
16:15 1020 30.12 849 25.07 -6.3 20.7 87 -8.1 17.5 -5.898 -0.232
16:16 1020 30.12 849 25.07 -6.3 20.6 87 -8.1 17.4 -6.051 -0.238
16:17 1020 30.12 849 25.07 -6.5 20.4 87 -8.2 17.2 -6.147 -0.242
16:18 1020 30.12 849 25.07 -6.6 20.2 88 -8.2 17.2 -6.306 -0.248
16:19 1020 30.12 849 25.07 -6.6 20 88 -8.2 17.2 -6.424 -0.253
16:20 1020 30.12 849 25.07 -6.7 19.9 89 -8.3 17.1 -6.492 -0.256
16:21 1020 30.12 849 25.07 -6.9 19.6 88 -8.5 16.6 -6.708 -0.264
16:22 1020 30.12 849 25.07 -7.1 19.3 89 -8.5 16.6 -6.859 -0.27
16:23 1020 30.12 849 25.07 -7.2 19.1 89 -8.7 16.3 -6.944 -0.273
16:24 1020 30.12 849 25.07 -7.3 18.8 89 -8.8 16.2 -7.07 -0.278
16:25 1020 30.12 849 25.07 -7.4 18.7 89 -8.9 16.1 -7.11 -0.28
16:26 1020 30.12 849 25.07 -7.5 18.4 89 -9.1 15.7 -7.24 -0.285
16:27 1020 30.12 849 25.07 -7.7 18.2 90 -9 15.8 -7.35 -0.289
16:28 1020 30.12 849 25.07 -7.7 18.2 91 -8.9 16 -7.33 -0.289
16:29 1020 30.12 849 25.07 -7.6 18.3 92 -8.8 16.2 -7.32 -0.288
16:30 1020 30.12 849 25.07 -7.6 18.3 92 -8.7 16.3 -7.3 -0.287
16:31 1020 30.12 849 25.07 -7.7 18.2 91 -8.9 16 -7.41 -0.292
16:32 1020 30.12 849 25.07 -7.7 18.1 91 -8.9 16 -7.41 -0.292
16:33 1020 30.12 849 25.07 -7.7 18.1 92 -8.8 16.2 -7.43 -0.293
16:34 1020 30.12 849 25.07 -7.7 18.2 92 -8.7 16.3 -7.4 -0.291
16:35 1020 30.12 849 25.07 -7.6 18.2 93 -8.5 16.6 -7.29 -0.287
16:36 1020 30.12 849 25.07 -7.5 18.5 94 -8.4 16.9 -7.21 -0.284
16:37 1020 30.12 849 25.07 -7.4 18.7 94 -8.2 17.2 -7.08 -0.279
16:38 1020 30.12 849 25.07 -7.3 18.8 94 -8.2 17.2 -7.03 -0.277
16:39 1020 30.12 849 25.07 -7.4 18.8 93 -8.3 17.1 -7.03 -0.277
16:40 1020 30.12 849 25.07 -7.4 18.7 94 -8.2 17.2 -7.03 -0.277
16:41 1020 30.12 849 25.07 -7.4 18.8 93 -8.2 17.2 -7.02 -0.276
16:42 1020 30.12 849 25.07 -7.4 18.7 93 -8.4 17 -7.1 -0.28
16:43 1020 30.12 850 25.1 -7.5 18.4 92 -8.6 16.5 -7.28 -0.287
16:44 1020 30.12 849 25.07 -7.7 18.1 92 -8.7 16.3 -7.56 -0.298
16:45 1020 30.12 850 25.1 -7.9 17.8 92 -9 15.8 -7.78 -0.306
16:46 1020 30.12 850 25.1 -8 17.6 94 -8.8 16.1 -7.89 -0.311
16:47 1020 30.12 850 25.1 -8 17.7 95 -8.7 16.4 -7.78 -0.306
16:48 1020 30.12 850 25.1 -7.8 17.9 95 -8.5 16.7 -7.65 -0.301
16:49 1020 30.12 850 25.1 -7.8 18.1 95 -8.4 16.8 -7.52 -0.296
16:50 1020 30.12 850 25.1 -7.7 18.2 95 -8.3 17 -7.42 -0.292
16:51 1020 30.12 850 25.1 -7.5 18.5 96 -8.1 17.4 -7.22 -0.284
16:52 1020 30.12 850 25.1 -7.5 18.6 92 -8.5 16.6 -7.21 -0.284
16:53 1020 30.12 850 25.1 -8 17.6 88 -9.7 14.5 -8.02 -0.316
16:54 1020 30.12 850 25.1 -8.3 17.1 93 -9.2 15.5 -8.34 -0.328
16:55 1020 30.12 850 25.1 -8.1 17.4 96 -8.6 16.4 -8.12 -0.32
16:56 1020 30.12 850 25.1 -8 17.7 95 -8.6 16.6 -7.93 -0.312
16:57 1020 30.12 850 25.1 -7.9 17.7 96 -8.5 16.7 -7.83 -0.308
16:58 1020 30.12 850 25.1 -7.9 17.8 95 -8.5 16.7 -7.76 -0.306
16:59 1020 30.12 850 25.1 -7.9 17.8 96 -8.5 16.7 -7.66 -0.302
17:00 1020 30.12 850 25.1 -7.9 17.7 95 -8.6 16.5 -7.68 -0.302
17:01 1020 30.12 850 25.1 -8.1 17.5 94 -8.9 16 -7.79 -0.307
17:02 1020 30.12 850 25.1 -8.2 17.2 94 -9 15.9 -7.92 -0.312
17:03 1020 30.12 850 25.1 -8.3 17.1 94 -9.1 15.7 -7.98 -0.314
17:04 1020 30.12 850 25.1 -8.4 16.8 93 -9.4 15.2 -8.15 -0.321
17:05 1020 30.12 850 25.1 -8.8 16.3 92 -9.8 14.3 -8.48 -0.334
17:06 1020 30.12 850 25.1 -9.1 15.7 93 -10 14 -8.8 -0.346
17:07 1020 30.12 850 25.1 -9.3 15.3 93 -10.3 13.5 -9.16 -0.361
17:08 1020 30.12 850 25.1 -9.5 15 94 -10.3 13.5 -9.41 -0.37
17:09 1020 30.12 850 25.1 -9.4 15.1 96 -9.9 14.2 -9.38 -0.369
17:10 1021 30.15 850 25.1 -9.4 15 96 -10 13.9 -9.47 -0.373
17:11 1021 30.15 850 25.1 -9.6 14.8 96 -10.1 13.7 -9.58 -0.377
17:12 1021 30.15 850 25.1 -9.6 14.7 96 -10.2 13.7 -9.6 -0.378
17:13 1021 30.15 850 25.1 -9.5 14.8 97 -10 14.1 -9.56 -0.376
17:14 1021 30.15 850 25.1 -9.8 14.4 94 -10.6 12.9 -9.79 -0.385
17:15 1021 30.15 850 25.1 -10.6 13 87 -12.4 9.7 -10.61 -0.418
17:16 1021 30.15 850 25.1 -11.6 11.1 86 -13.4 7.8 -11.62 -0.457
17:17 1021 30.15 850 25.1 -12.3 10 91 -13.4 7.9 -12.27 -0.483
17:18 1021 30.15 850 25.1 -11.6 11.1 97 -12 10.4 -11.59 -0.456
17:19 1021 30.15 850 25.1 -10.8 12.5 98 -11 12.1 -10.74 -0.423